sensor_id;sensor_type;location;lat;lon;timestamp;temperature;humidity
8402;DHT22;4238;48.404;9.498;2023-01-15T00:01:34;8.00;1.00
8402;DHT22;4238;48.404;9.498;2023-01-15T00:04:03;8.00;1.00
8402;DHT22;4238;48.404;9.498;2023-01-15T00:06:36;8.00;1.00
8402;DHT22;4238;48.404;9.498;2023-01-15T00:09:05;8.00;1.00
8402;DHT22;4238;48.404;9.498;2023-01-15T00:11:32;8.00;1.00
8402;DHT22;4238;48.404;9.498;2023-01-15T00:13:59;8.00;1.00
8402;DHT22;4238;48.404;9.498;2023-01-15T00:16:26;8.00;1.00
8402;DHT22;4238;48.404;9.498;2023-01-15T00:18:54;8.00;1.00
8402;DHT22;4238;48.404;9.498;2023-01-15T00:21:22;7.90;1.00
8402;DHT22;4238;48.404;9.498;2023-01-15T00:23:49;7.90;1.00
8402;DHT22;4238;48.404;9.498;2023-01-15T00:26:36;7.90;1.00
8402;DHT22;4238;48.404;9.498;2023-01-15T00:29:21;7.90;1.00
8402;DHT22;4238;48.404;9.498;2023-01-15T00:31:54;7.90;1.00
8402;DHT22;4238;48.404;9.498;2023-01-15T00:34:22;7.90;1.00
8402;DHT22;4238;48.404;9.498;2023-01-15T00:36:49;7.90;1.00
8402;DHT22;4238;48.404;9.498;2023-01-15T00:39:16;7.80;1.00
8402;DHT22;4238;48.404;9.498;2023-01-15T00:41:44;7.70;1.00
8402;DHT22;4238;48.404;9.498;2023-01-15T00:44:11;7.70;1.00
8402;DHT22;4238;48.404;9.498;2023-01-15T00:46:38;7.60;1.00
8402;DHT22;4238;48.404;9.498;2023-01-15T00:49:05;7.60;1.00
8402;DHT22;4238;48.404;9.498;2023-01-15T00:51:32;7.60;1.00
8402;DHT22;4238;48.404;9.498;2023-01-15T00:53:59;7.60;1.00
8402;DHT22;4238;48.404;9.498;2023-01-15T00:56:26;7.60;1.00
8402;DHT22;4238;48.404;9.498;2023-01-15T00:58:55;7.60;1.00
8402;DHT22;4238;48.404;9.498;2023-01-15T01:01:22;7.60;1.00
8402;DHT22;4238;48.404;9.498;2023-01-15T01:03:49;7.60;1.00
8402;DHT22;4238;48.404;9.498;2023-01-15T01:06:18;7.60;1.00
8402;DHT22;4238;48.404;9.498;2023-01-15T01:08:45;7.60;1.00
8402;DHT22;4238;48.404;9.498;2023-01-15T01:11:13;7.50;1.00
8402;DHT22;4238;48.404;9.498;2023-01-15T01:13:41;7.50;1.00
8402;DHT22;4238;48.404;9.498;2023-01-15T01:16:24;7.50;1.00
8402;DHT22;4238;48.404;9.498;2023-01-15T01:18:51;7.50;1.00
8402;DHT22;4238;48.404;9.498;2023-01-15T01:21:18;7.50;1.00
8402;DHT22;4238;48.404;9.498;2023-01-15T01:23:45;7.50;1.00
8402;DHT22;4238;48.404;9.498;2023-01-15T01:26:12;7.50;1.00
8402;DHT22;4238;48.404;9.498;2023-01-15T01:28:39;7.50;1.00
8402;DHT22;4238;48.404;9.498;2023-01-15T01:31:06;7.50;1.00
8402;DHT22;4238;48.404;9.498;2023-01-15T01:33:35;7.50;1.00
8402;DHT22;4238;48.404;9.498;2023-01-15T01:36:05;7.40;6.90
8402;DHT22;4238;48.404;9.498;2023-01-15T01:38:32;7.50;15.50
8402;DHT22;4238;48.404;9.498;2023-01-15T01:40:59;7.40;14.40
8402;DHT22;4238;48.404;9.498;2023-01-15T01:43:27;7.40;27.10
8402;DHT22;4238;48.404;9.498;2023-01-15T01:45:55;7.40;26.80
8402;DHT22;4238;48.404;9.498;2023-01-15T01:48:25;7.50;38.90
8402;DHT22;4238;48.404;9.498;2023-01-15T01:50:57;7.50;35.00
8402;DHT22;4238;48.404;9.498;2023-01-15T01:53:27;7.50;54.80
8402;DHT22;4238;48.404;9.498;2023-01-15T01:55:54;7.50;69.20
8402;DHT22;4238;48.404;9.498;2023-01-15T01:58:24;7.50;66.80
8402;DHT22;4238;48.404;9.498;2023-01-15T02:00:53;7.40;77.70
8402;DHT22;4238;48.404;9.498;2023-01-15T02:03:22;7.40;81.40
8402;DHT22;4238;48.404;9.498;2023-01-15T02:05:55;7.30;80.20
8402;DHT22;4238;48.404;9.498;2023-01-15T02:08:24;7.30;84.10
8402;DHT22;4238;48.404;9.498;2023-01-15T02:10:53;7.30;90.10
8402;DHT22;4238;48.404;9.498;2023-01-15T02:13:26;7.30;91.20
8402;DHT22;4238;48.404;9.498;2023-01-15T02:16:02;7.20;95.60
8402;DHT22;4238;48.404;9.498;2023-01-15T02:18:34;7.20;95.70
8402;DHT22;4238;48.404;9.498;2023-01-15T02:21:08;7.30;94.60
8402;DHT22;4238;48.404;9.498;2023-01-15T02:24:02;7.40;94.40
8402;DHT22;4238;48.404;9.498;2023-01-15T02:26:54;7.50;93.50
8402;DHT22;4238;48.404;9.498;2023-01-15T02:29:28;7.50;93.70
8402;DHT22;4238;48.404;9.498;2023-01-15T02:31:59;7.60;94.80
8402;DHT22;4238;48.404;9.498;2023-01-15T02:34:29;7.70;93.10
8402;DHT22;4238;48.404;9.498;2023-01-15T02:37:01;7.80;90.90
8402;DHT22;4238;48.404;9.498;2023-01-15T02:39:30;7.90;90.10
8402;DHT22;4238;48.404;9.498;2023-01-15T02:42:02;7.90;85.90
8402;DHT22;4238;48.404;9.498;2023-01-15T02:44:31;8.00;83.70
8402;DHT22;4238;48.404;9.498;2023-01-15T02:47:00;8.00;84.30
8402;DHT22;4238;48.404;9.498;2023-01-15T02:49:29;8.10;84.80
8402;DHT22;4238;48.404;9.498;2023-01-15T02:52:00;8.10;85.90
8402;DHT22;4238;48.404;9.498;2023-01-15T02:54:31;8.20;81.00
8402;DHT22;4238;48.404;9.498;2023-01-15T02:57:02;8.20;80.50
8402;DHT22;4238;48.404;9.498;2023-01-15T02:59:35;8.20;79.40
8402;DHT22;4238;48.404;9.498;2023-01-15T03:02:06;8.30;79.50
8402;DHT22;4238;48.404;9.498;2023-01-15T03:04:39;8.30;77.30
8402;DHT22;4238;48.404;9.498;2023-01-15T03:07:11;8.40;76.70
8402;DHT22;4238;48.404;9.498;2023-01-15T03:09:40;8.30;82.00
8402;DHT22;4238;48.404;9.498;2023-01-15T03:12:14;8.40;76.90
8402;DHT22;4238;48.404;9.498;2023-01-15T03:14:48;8.40;75.80
8402;DHT22;4238;48.404;9.498;2023-01-15T03:17:18;8.40;78.70
8402;DHT22;4238;48.404;9.498;2023-01-15T03:19:52;8.40;82.70
8402;DHT22;4238;48.404;9.498;2023-01-15T03:22:26;8.40;83.70
8402;DHT22;4238;48.404;9.498;2023-01-15T03:24:58;8.50;83.50
8402;DHT22;4238;48.404;9.498;2023-01-15T03:27:27;8.50;82.40
8402;DHT22;4238;48.404;9.498;2023-01-15T03:29:58;8.50;83.60
8402;DHT22;4238;48.404;9.498;2023-01-15T03:32:27;8.50;85.80
8402;DHT22;4238;48.404;9.498;2023-01-15T03:34:56;8.50;85.90
8402;DHT22;4238;48.404;9.498;2023-01-15T03:37:24;8.50;88.80
8402;DHT22;4238;48.404;9.498;2023-01-15T03:39:53;8.50;86.80
8402;DHT22;4238;48.404;9.498;2023-01-15T03:42:34;8.50;89.00
8402;DHT22;4238;48.404;9.498;2023-01-15T03:45:07;8.50;86.30
8402;DHT22;4238;48.404;9.498;2023-01-15T03:47:45;8.50;79.40
8402;DHT22;4238;48.404;9.498;2023-01-15T03:50:21;8.60;79.30
8402;DHT22;4238;48.404;9.498;2023-01-15T03:52:56;8.60;80.40
8402;DHT22;4238;48.404;9.498;2023-01-15T03:55:27;8.60;81.30
8402;DHT22;4238;48.404;9.498;2023-01-15T03:58:04;8.60;83.60
8402;DHT22;4238;48.404;9.498;2023-01-15T04:00:35;8.60;83.80
8402;DHT22;4238;48.404;9.498;2023-01-15T04:03:06;8.60;86.20
8402;DHT22;4238;48.404;9.498;2023-01-15T04:05:36;8.60;92.10
8402;DHT22;4238;48.404;9.498;2023-01-15T04:08:05;8.60;93.80
8402;DHT22;4238;48.404;9.498;2023-01-15T04:10:32;8.60;95.20
8402;DHT22;4238;48.404;9.498;2023-01-15T04:13:00;8.50;95.70
8402;DHT22;4238;48.404;9.498;2023-01-15T04:15:27;8.50;98.60
8402;DHT22;4238;48.404;9.498;2023-01-15T04:17:54;8.50;99.90
8402;DHT22;4238;48.404;9.498;2023-01-15T04:20:21;8.50;99.90
8402;DHT22;4238;48.404;9.498;2023-01-15T04:22:48;8.50;99.90
8402;DHT22;4238;48.404;9.498;2023-01-15T04:25:15;8.50;99.90
8402;DHT22;4238;48.404;9.498;2023-01-15T04:27:42;8.40;99.10
8402;DHT22;4238;48.404;9.498;2023-01-15T04:30:11;8.40;99.90
8402;DHT22;4238;48.404;9.498;2023-01-15T04:32:41;8.40;99.50
8402;DHT22;4238;48.404;9.498;2023-01-15T04:35:08;8.40;99.90
8402;DHT22;4238;48.404;9.498;2023-01-15T04:37:35;8.50;99.90
8402;DHT22;4238;48.404;9.498;2023-01-15T04:40:03;8.50;99.90
8402;DHT22;4238;48.404;9.498;2023-01-15T04:42:30;8.50;99.40
8402;DHT22;4238;48.404;9.498;2023-01-15T04:45:16;8.50;99.10
8402;DHT22;4238;48.404;9.498;2023-01-15T04:47:43;8.50;99.90
8402;DHT22;4238;48.404;9.498;2023-01-15T04:50:10;8.50;98.40
8402;DHT22;4238;48.404;9.498;2023-01-15T04:52:37;8.50;99.20
8402;DHT22;4238;48.404;9.498;2023-01-15T04:55:04;8.50;99.60
8402;DHT22;4238;48.404;9.498;2023-01-15T04:57:31;8.50;99.50
8402;DHT22;4238;48.404;9.498;2023-01-15T04:59:59;8.50;99.90
8402;DHT22;4238;48.404;9.498;2023-01-15T05:02:28;8.50;99.90
8402;DHT22;4238;48.404;9.498;2023-01-15T05:04:54;8.50;99.90
8402;DHT22;4238;48.404;9.498;2023-01-15T05:07:21;8.50;99.90
8402;DHT22;4238;48.404;9.498;2023-01-15T05:09:48;8.50;99.90
8402;DHT22;4238;48.404;9.498;2023-01-15T05:12:17;8.50;99.90
8402;DHT22;4238;48.404;9.498;2023-01-15T05:14:44;8.50;99.90
8402;DHT22;4238;48.404;9.498;2023-01-15T05:17:10;8.50;99.90
8402;DHT22;4238;48.404;9.498;2023-01-15T05:19:39;8.50;99.90
8402;DHT22;4238;48.404;9.498;2023-01-15T05:22:06;8.50;99.90
8402;DHT22;4238;48.404;9.498;2023-01-15T05:24:35;8.50;99.90
8402;DHT22;4238;48.404;9.498;2023-01-15T05:27:02;8.50;99.90
8402;DHT22;4238;48.404;9.498;2023-01-15T05:29:30;8.40;99.90
8402;DHT22;4238;48.404;9.498;2023-01-15T05:31:57;8.50;99.90
8402;DHT22;4238;48.404;9.498;2023-01-15T05:34:24;8.50;99.90
8402;DHT22;4238;48.404;9.498;2023-01-15T05:36:52;8.40;99.90
8402;DHT22;4238;48.404;9.498;2023-01-15T05:39:19;8.40;99.90
8402;DHT22;4238;48.404;9.498;2023-01-15T05:41:46;8.40;99.90
8402;DHT22;4238;48.404;9.498;2023-01-15T05:44:17;8.40;99.90
8402;DHT22;4238;48.404;9.498;2023-01-15T05:46:45;8.40;99.90
8402;DHT22;4238;48.404;9.498;2023-01-15T05:49:15;8.40;99.90
8402;DHT22;4238;48.404;9.498;2023-01-15T05:51:42;8.30;99.90
8402;DHT22;4238;48.404;9.498;2023-01-15T05:54:13;8.30;99.90
8402;DHT22;4238;48.404;9.498;2023-01-15T05:56:41;8.30;99.90
8402;DHT22;4238;48.404;9.498;2023-01-15T05:59:10;8.20;99.90
8402;DHT22;4238;48.404;9.498;2023-01-15T06:01:37;8.20;99.90
8402;DHT22;4238;48.404;9.498;2023-01-15T06:04:05;8.20;99.90
8402;DHT22;4238;48.404;9.498;2023-01-15T06:06:33;8.20;99.90
8402;DHT22;4238;48.404;9.498;2023-01-15T06:09:01;8.20;99.90
8402;DHT22;4238;48.404;9.498;2023-01-15T06:11:30;8.10;99.90
8402;DHT22;4238;48.404;9.498;2023-01-15T06:13:57;8.10;99.90
8402;DHT22;4238;48.404;9.498;2023-01-15T06:16:24;8.10;99.90
8402;DHT22;4238;48.404;9.498;2023-01-15T06:18:51;8.10;99.90
8402;DHT22;4238;48.404;9.498;2023-01-15T06:21:18;8.10;99.90
8402;DHT22;4238;48.404;9.498;2023-01-15T06:23:45;8.10;99.90
8402;DHT22;4238;48.404;9.498;2023-01-15T06:26:14;8.10;99.90
8402;DHT22;4238;48.404;9.498;2023-01-15T06:28:44;8.10;99.90
8402;DHT22;4238;48.404;9.498;2023-01-15T06:31:13;8.10;99.90
8402;DHT22;4238;48.404;9.498;2023-01-15T06:33:40;8.10;99.90
8402;DHT22;4238;48.404;9.498;2023-01-15T06:36:11;8.00;99.90
8402;DHT22;4238;48.404;9.498;2023-01-15T06:38:38;8.00;99.90
8402;DHT22;4238;48.404;9.498;2023-01-15T06:41:08;8.00;99.90
8402;DHT22;4238;48.404;9.498;2023-01-15T06:43:55;8.10;99.90
8402;DHT22;4238;48.404;9.498;2023-01-15T06:46:43;8.00;99.90
8402;DHT22;4238;48.404;9.498;2023-01-15T06:49:27;8.10;99.90
8402;DHT22;4238;48.404;9.498;2023-01-15T06:51:54;8.00;99.90
8402;DHT22;4238;48.404;9.498;2023-01-15T06:54:21;8.00;99.90
8402;DHT22;4238;48.404;9.498;2023-01-15T06:56:48;8.00;99.90
8402;DHT22;4238;48.404;9.498;2023-01-15T06:59:17;7.90;99.90
8402;DHT22;4238;48.404;9.498;2023-01-15T07:01:44;7.90;99.90
8402;DHT22;4238;48.404;9.498;2023-01-15T07:04:11;7.90;99.90
8402;DHT22;4238;48.404;9.498;2023-01-15T07:06:38;7.90;99.90
8402;DHT22;4238;48.404;9.498;2023-01-15T07:09:05;7.90;99.90
8402;DHT22;4238;48.404;9.498;2023-01-15T07:11:32;7.90;99.90
8402;DHT22;4238;48.404;9.498;2023-01-15T07:13:59;7.80;99.90
8402;DHT22;4238;48.404;9.498;2023-01-15T07:16:33;7.80;99.90
8402;DHT22;4238;48.404;9.498;2023-01-15T07:19:00;7.80;99.90
8402;DHT22;4238;48.404;9.498;2023-01-15T07:21:27;7.80;99.90
8402;DHT22;4238;48.404;9.498;2023-01-15T07:23:58;7.70;99.90
8402;DHT22;4238;48.404;9.498;2023-01-15T07:26:25;7.70;99.90
8402;DHT22;4238;48.404;9.498;2023-01-15T07:28:52;7.70;99.90
8402;DHT22;4238;48.404;9.498;2023-01-15T07:31:20;7.70;99.90
8402;DHT22;4238;48.404;9.498;2023-01-15T07:33:48;7.70;99.90
8402;DHT22;4238;48.404;9.498;2023-01-15T07:36:15;7.80;99.90
8402;DHT22;4238;48.404;9.498;2023-01-15T07:38:42;7.80;99.90
8402;DHT22;4238;48.404;9.498;2023-01-15T07:41:09;7.80;99.90
8402;DHT22;4238;48.404;9.498;2023-01-15T07:43:53;7.80;99.90
8402;DHT22;4238;48.404;9.498;2023-01-15T07:46:37;7.50;99.90
8402;DHT22;4238;48.404;9.498;2023-01-15T07:49:23;7.40;99.90
8402;DHT22;4238;48.404;9.498;2023-01-15T07:52:20;7.10;99.90
8402;DHT22;4238;48.404;9.498;2023-01-15T07:54:48;7.00;99.90
8402;DHT22;4238;48.404;9.498;2023-01-15T07:57:17;6.90;99.90
8402;DHT22;4238;48.404;9.498;2023-01-15T07:59:45;6.80;99.90
8402;DHT22;4238;48.404;9.498;2023-01-15T08:02:12;6.60;99.90
8402;DHT22;4238;48.404;9.498;2023-01-15T08:04:41;6.50;99.90
8402;DHT22;4238;48.404;9.498;2023-01-15T08:07:07;6.40;99.90
8402;DHT22;4238;48.404;9.498;2023-01-15T08:09:35;6.40;99.90
8402;DHT22;4238;48.404;9.498;2023-01-15T08:12:03;6.30;99.90
8402;DHT22;4238;48.404;9.498;2023-01-15T08:14:47;6.20;99.90
8402;DHT22;4238;48.404;9.498;2023-01-15T08:17:32;6.20;99.90
8402;DHT22;4238;48.404;9.498;2023-01-15T08:20:14;6.10;99.90
8402;DHT22;4238;48.404;9.498;2023-01-15T08:22:42;6.00;99.90
8402;DHT22;4238;48.404;9.498;2023-01-15T08:25:11;5.90;99.90
8402;DHT22;4238;48.404;9.498;2023-01-15T08:27:39;5.80;99.90
8402;DHT22;4238;48.404;9.498;2023-01-15T08:30:10;5.70;99.90
8402;DHT22;4238;48.404;9.498;2023-01-15T08:32:37;5.70;99.90
8402;DHT22;4238;48.404;9.498;2023-01-15T08:35:05;5.60;99.90
8402;DHT22;4238;48.404;9.498;2023-01-15T08:37:34;5.40;99.90
8402;DHT22;4238;48.404;9.498;2023-01-15T08:40:01;5.40;99.90
8402;DHT22;4238;48.404;9.498;2023-01-15T08:42:29;5.30;99.90
8402;DHT22;4238;48.404;9.498;2023-01-15T08:44:56;5.30;99.90
8402;DHT22;4238;48.404;9.498;2023-01-15T08:47:22;5.30;99.90
8402;DHT22;4238;48.404;9.498;2023-01-15T08:49:49;5.30;99.90
8402;DHT22;4238;48.404;9.498;2023-01-15T08:52:16;5.30;99.90
8402;DHT22;4238;48.404;9.498;2023-01-15T08:54:45;5.20;99.90
8402;DHT22;4238;48.404;9.498;2023-01-15T08:57:11;5.20;99.90
8402;DHT22;4238;48.404;9.498;2023-01-15T08:59:38;5.20;99.90
8402;DHT22;4238;48.404;9.498;2023-01-15T09:02:10;5.20;99.90
8402;DHT22;4238;48.404;9.498;2023-01-15T09:04:38;5.10;99.90
8402;DHT22;4238;48.404;9.498;2023-01-15T09:07:04;5.10;99.90
8402;DHT22;4238;48.404;9.498;2023-01-15T09:09:32;5.10;99.90
8402;DHT22;4238;48.404;9.498;2023-01-15T09:12:01;5.10;99.90
8402;DHT22;4238;48.404;9.498;2023-01-15T09:14:28;5.00;99.90
8402;DHT22;4238;48.404;9.498;2023-01-15T09:16:55;5.00;99.90
8402;DHT22;4238;48.404;9.498;2023-01-15T09:19:22;4.90;99.90
8402;DHT22;4238;48.404;9.498;2023-01-15T09:21:49;4.90;99.90
8402;DHT22;4238;48.404;9.498;2023-01-15T09:24:16;4.90;99.90
8402;DHT22;4238;48.404;9.498;2023-01-15T09:26:42;5.00;99.90
8402;DHT22;4238;48.404;9.498;2023-01-15T09:29:11;5.00;99.90
8402;DHT22;4238;48.404;9.498;2023-01-15T09:31:38;5.00;99.90
8402;DHT22;4238;48.404;9.498;2023-01-15T09:34:05;5.00;99.90
8402;DHT22;4238;48.404;9.498;2023-01-15T09:36:33;5.00;99.90
8402;DHT22;4238;48.404;9.498;2023-01-15T09:39:01;5.10;99.90
8402;DHT22;4238;48.404;9.498;2023-01-15T09:41:36;5.00;99.90
8402;DHT22;4238;48.404;9.498;2023-01-15T09:44:32;5.00;99.90
8402;DHT22;4238;48.404;9.498;2023-01-15T09:47:07;4.80;99.90
8402;DHT22;4238;48.404;9.498;2023-01-15T09:49:45;4.80;99.90
8402;DHT22;4238;48.404;9.498;2023-01-15T09:52:24;4.70;99.90
8402;DHT22;4238;48.404;9.498;2023-01-15T09:54:59;4.60;99.90
8402;DHT22;4238;48.404;9.498;2023-01-15T09:57:29;4.50;99.90
8402;DHT22;4238;48.404;9.498;2023-01-15T09:59:58;4.60;99.90
8402;DHT22;4238;48.404;9.498;2023-01-15T10:02:31;4.60;99.90
8402;DHT22;4238;48.404;9.498;2023-01-15T10:05:10;4.70;99.90
8402;DHT22;4238;48.404;9.498;2023-01-15T10:07:49;4.70;99.90
8402;DHT22;4238;48.404;9.498;2023-01-15T10:10:19;4.70;99.90
8402;DHT22;4238;48.404;9.498;2023-01-15T10:12:49;4.80;99.90
8402;DHT22;4238;48.404;9.498;2023-01-15T10:15:32;4.80;99.90
8402;DHT22;4238;48.404;9.498;2023-01-15T10:18:02;4.90;99.90
8402;DHT22;4238;48.404;9.498;2023-01-15T10:20:59;4.90;99.90
8402;DHT22;4238;48.404;9.498;2023-01-15T10:23:34;4.80;99.90
8402;DHT22;4238;48.404;9.498;2023-01-15T10:26:14;4.70;99.90
8402;DHT22;4238;48.404;9.498;2023-01-15T10:28:58;4.70;99.90
8402;DHT22;4238;48.404;9.498;2023-01-15T10:31:41;4.60;99.90
8402;DHT22;4238;48.404;9.498;2023-01-15T10:34:29;4.60;99.90
8402;DHT22;4238;48.404;9.498;2023-01-15T10:37:04;4.60;99.90
8402;DHT22;4238;48.404;9.498;2023-01-15T10:39:37;4.50;99.90
8402;DHT22;4238;48.404;9.498;2023-01-15T10:42:21;4.50;99.90
8402;DHT22;4238;48.404;9.498;2023-01-15T10:45:00;4.50;99.90
8402;DHT22;4238;48.404;9.498;2023-01-15T10:47:37;4.40;99.90
8402;DHT22;4238;48.404;9.498;2023-01-15T10:50:12;4.50;99.90
8402;DHT22;4238;48.404;9.498;2023-01-15T10:52:44;4.60;99.90
8402;DHT22;4238;48.404;9.498;2023-01-15T10:55:19;4.70;99.90
8402;DHT22;4238;48.404;9.498;2023-01-15T10:57:52;4.70;99.90
8402;DHT22;4238;48.404;9.498;2023-01-15T11:00:22;4.70;99.90
8402;DHT22;4238;48.404;9.498;2023-01-15T11:02:58;4.60;99.90
8402;DHT22;4238;48.404;9.498;2023-01-15T11:05:26;4.60;99.90
8402;DHT22;4238;48.404;9.498;2023-01-15T11:07:53;4.60;99.90
8402;DHT22;4238;48.404;9.498;2023-01-15T11:10:21;4.60;99.90
8402;DHT22;4238;48.404;9.498;2023-01-15T11:12:51;4.60;99.90
8402;DHT22;4238;48.404;9.498;2023-01-15T11:15:47;4.60;99.90
8402;DHT22;4238;48.404;9.498;2023-01-15T11:18:35;4.40;99.90
8402;DHT22;4238;48.404;9.498;2023-01-15T11:21:22;4.30;99.90
8402;DHT22;4238;48.404;9.498;2023-01-15T11:23:51;4.30;99.90
8402;DHT22;4238;48.404;9.498;2023-01-15T11:26:21;4.20;99.90
8402;DHT22;4238;48.404;9.498;2023-01-15T11:28:49;4.10;99.90
8402;DHT22;4238;48.404;9.498;2023-01-15T11:31:16;4.10;99.90
8402;DHT22;4238;48.404;9.498;2023-01-15T11:33:56;4.00;99.90
8402;DHT22;4238;48.404;9.498;2023-01-15T11:36:25;4.00;99.90
8402;DHT22;4238;48.404;9.498;2023-01-15T11:38:55;4.00;99.90
8402;DHT22;4238;48.404;9.498;2023-01-15T11:41:27;3.90;99.90
8402;DHT22;4238;48.404;9.498;2023-01-15T11:44:16;3.90;99.90
8402;DHT22;4238;48.404;9.498;2023-01-15T11:47:01;3.90;99.90
8402;DHT22;4238;48.404;9.498;2023-01-15T11:49:51;3.80;99.90
8402;DHT22;4238;48.404;9.498;2023-01-15T11:52:36;3.80;99.90
8402;DHT22;4238;48.404;9.498;2023-01-15T11:55:09;3.80;99.90
8402;DHT22;4238;48.404;9.498;2023-01-15T11:57:38;3.80;99.90
8402;DHT22;4238;48.404;9.498;2023-01-15T12:00:13;3.80;99.90
8402;DHT22;4238;48.404;9.498;2023-01-15T12:02:45;3.80;99.90
8402;DHT22;4238;48.404;9.498;2023-01-15T12:05:17;3.70;99.90
8402;DHT22;4238;48.404;9.498;2023-01-15T12:07:45;3.70;99.90
8402;DHT22;4238;48.404;9.498;2023-01-15T12:10:18;3.60;99.90
8402;DHT22;4238;48.404;9.498;2023-01-15T12:13:14;3.60;99.90
8402;DHT22;4238;48.404;9.498;2023-01-15T12:15:48;3.60;99.90
8402;DHT22;4238;48.404;9.498;2023-01-15T12:21:26;3.70;99.90
8402;DHT22;4238;48.404;9.498;2023-01-15T12:26:53;3.70;99.90
8402;DHT22;4238;48.404;9.498;2023-01-15T12:29:25;3.70;99.90
8402;DHT22;4238;48.404;9.498;2023-01-15T12:31:56;3.60;99.90
8402;DHT22;4238;48.404;9.498;2023-01-15T12:34:30;3.60;99.90
8402;DHT22;4238;48.404;9.498;2023-01-15T12:37:05;3.70;99.90
8402;DHT22;4238;48.404;9.498;2023-01-15T12:39:41;3.60;99.90
8402;DHT22;4238;48.404;9.498;2023-01-15T12:42:14;3.60;99.90
8402;DHT22;4238;48.404;9.498;2023-01-15T12:45:06;3.50;99.90
8402;DHT22;4238;48.404;9.498;2023-01-15T12:47:39;3.40;99.90
8402;DHT22;4238;48.404;9.498;2023-01-15T12:50:22;3.30;99.90
8402;DHT22;4238;48.404;9.498;2023-01-15T12:52:57;3.20;99.90
8402;DHT22;4238;48.404;9.498;2023-01-15T12:55:29;3.10;99.90
8402;DHT22;4238;48.404;9.498;2023-01-15T12:57:59;3.10;99.90
8402;DHT22;4238;48.404;9.498;2023-01-15T13:00:29;3.00;99.90
8402;DHT22;4238;48.404;9.498;2023-01-15T13:03:14;3.00;99.90
8402;DHT22;4238;48.404;9.498;2023-01-15T13:05:46;3.00;99.90
8402;DHT22;4238;48.404;9.498;2023-01-15T13:08:20;3.00;99.90
8402;DHT22;4238;48.404;9.498;2023-01-15T13:10:49;2.90;99.90
8402;DHT22;4238;48.404;9.498;2023-01-15T13:13:18;3.00;99.90
8402;DHT22;4238;48.404;9.498;2023-01-15T13:15:57;2.80;99.90
8402;DHT22;4238;48.404;9.498;2023-01-15T13:18:33;2.80;99.90
8402;DHT22;4238;48.404;9.498;2023-01-15T13:21:06;2.80;99.90
8402;DHT22;4238;48.404;9.498;2023-01-15T13:23:47;2.90;99.90
8402;DHT22;4238;48.404;9.498;2023-01-15T13:26:38;3.00;99.90
8402;DHT22;4238;48.404;9.498;2023-01-15T13:29:17;3.00;99.90
8402;DHT22;4238;48.404;9.498;2023-01-15T13:31:57;3.10;99.90
8402;DHT22;4238;48.404;9.498;2023-01-15T13:34:29;3.10;99.90
8402;DHT22;4238;48.404;9.498;2023-01-15T13:37:01;3.10;99.90
8402;DHT22;4238;48.404;9.498;2023-01-15T13:39:36;3.20;99.90
8402;DHT22;4238;48.404;9.498;2023-01-15T13:42:05;3.20;99.90
8402;DHT22;4238;48.404;9.498;2023-01-15T13:44:51;3.20;99.90
8402;DHT22;4238;48.404;9.498;2023-01-15T13:47:21;3.20;99.90
8402;DHT22;4238;48.404;9.498;2023-01-15T13:49:52;3.10;99.90
8402;DHT22;4238;48.404;9.498;2023-01-15T13:52:23;3.10;99.90
8402;DHT22;4238;48.404;9.498;2023-01-15T13:54:55;3.10;99.90
8402;DHT22;4238;48.404;9.498;2023-01-15T13:57:25;3.00;97.70
8402;DHT22;4238;48.404;9.498;2023-01-15T13:59:57;3.00;99.90
8402;DHT22;4238;48.404;9.498;2023-01-15T14:02:27;3.00;99.30
8402;DHT22;4238;48.404;9.498;2023-01-15T14:04:54;3.00;99.90
8402;DHT22;4238;48.404;9.498;2023-01-15T14:07:32;3.00;97.70
8402;DHT22;4238;48.404;9.498;2023-01-15T14:10:23;3.00;99.90
8402;DHT22;4238;48.404;9.498;2023-01-15T14:13:00;3.10;99.90
8402;DHT22;4238;48.404;9.498;2023-01-15T14:15:38;3.10;99.70
8402;DHT22;4238;48.404;9.498;2023-01-15T14:18:15;3.10;97.80
8402;DHT22;4238;48.404;9.498;2023-01-15T14:21:09;3.00;96.20
8402;DHT22;4238;48.404;9.498;2023-01-15T14:24:04;3.00;94.10
8402;DHT22;4238;48.404;9.498;2023-01-15T14:26:44;3.00;94.40
8402;DHT22;4238;48.404;9.498;2023-01-15T14:29:29;3.00;92.30
8402;DHT22;4238;48.404;9.498;2023-01-15T14:32:03;3.00;92.30
8402;DHT22;4238;48.404;9.498;2023-01-15T14:34:33;2.90;95.90
8402;DHT22;4238;48.404;9.498;2023-01-15T14:37:03;3.00;94.50
8402;DHT22;4238;48.404;9.498;2023-01-15T14:39:38;3.00;92.80
8402;DHT22;4238;48.404;9.498;2023-01-15T14:42:12;3.00;90.60
8402;DHT22;4238;48.404;9.498;2023-01-15T14:45:04;3.20;83.60
8402;DHT22;4238;48.404;9.498;2023-01-15T14:47:35;3.40;47.10
8402;DHT22;4238;48.404;9.498;2023-01-15T14:50:22;3.40;42.00
8402;DHT22;4238;48.404;9.498;2023-01-15T14:52:52;3.40;42.60
8402;DHT22;4238;48.404;9.498;2023-01-15T14:55:20;3.40;41.70
8402;DHT22;4238;48.404;9.498;2023-01-15T14:57:55;3.50;49.70
8402;DHT22;4238;48.404;9.498;2023-01-15T15:00:28;3.50;34.40
8402;DHT22;4238;48.404;9.498;2023-01-15T15:02:58;3.50;41.20
8402;DHT22;4238;48.404;9.498;2023-01-15T15:05:28;3.50;37.20
8402;DHT22;4238;48.404;9.498;2023-01-15T15:07:59;3.50;50.60
8402;DHT22;4238;48.404;9.498;2023-01-15T15:10:31;3.40;57.60
8402;DHT22;4238;48.404;9.498;2023-01-15T15:13:06;3.40;52.80
8402;DHT22;4238;48.404;9.498;2023-01-15T15:15:43;3.30;59.70
8402;DHT22;4238;48.404;9.498;2023-01-15T15:18:22;3.30;67.40
8402;DHT22;4238;48.404;9.498;2023-01-15T15:20:57;3.20;64.70
8402;DHT22;4238;48.404;9.498;2023-01-15T15:23:27;3.10;70.50
8402;DHT22;4238;48.404;9.498;2023-01-15T15:25:58;3.10;82.30
8402;DHT22;4238;48.404;9.498;2023-01-15T15:28:28;3.00;86.70
8402;DHT22;4238;48.404;9.498;2023-01-15T15:30:58;3.00;96.80
8402;DHT22;4238;48.404;9.498;2023-01-15T15:33:36;3.00;99.90
8402;DHT22;4238;48.404;9.498;2023-01-15T15:36:04;3.10;99.90
8402;DHT22;4238;48.404;9.498;2023-01-15T15:38:31;3.00;99.90
8402;DHT22;4238;48.404;9.498;2023-01-15T15:41:00;3.00;99.90
8402;DHT22;4238;48.404;9.498;2023-01-15T15:43:38;2.80;99.90
8402;DHT22;4238;48.404;9.498;2023-01-15T15:46:28;2.80;99.90
8402;DHT22;4238;48.404;9.498;2023-01-15T15:49:13;2.90;99.90
8402;DHT22;4238;48.404;9.498;2023-01-15T15:51:50;2.90;99.90
8402;DHT22;4238;48.404;9.498;2023-01-15T15:54:19;2.80;99.90
8402;DHT22;4238;48.404;9.498;2023-01-15T15:56:49;2.90;90.10
8402;DHT22;4238;48.404;9.498;2023-01-15T15:59:29;2.90;84.60
8402;DHT22;4238;48.404;9.498;2023-01-15T16:01:58;2.80;68.50
8402;DHT22;4238;48.404;9.498;2023-01-15T16:04:29;2.70;69.50
8402;DHT22;4238;48.404;9.498;2023-01-15T16:06:58;2.60;78.80
8402;DHT22;4238;48.404;9.498;2023-01-15T16:09:25;2.60;75.80
8402;DHT22;4238;48.404;9.498;2023-01-15T16:11:53;2.60;81.80
8402;DHT22;4238;48.404;9.498;2023-01-15T16:14:45;2.60;72.10
8402;DHT22;4238;48.404;9.498;2023-01-15T16:17:14;2.60;70.90
8402;DHT22;4238;48.404;9.498;2023-01-15T16:19:44;2.30;51.20
8402;DHT22;4238;48.404;9.498;2023-01-15T16:22:17;2.30;63.90
8402;DHT22;4238;48.404;9.498;2023-01-15T16:24:55;2.40;70.00
8402;DHT22;4238;48.404;9.498;2023-01-15T16:27:25;2.40;63.60
8402;DHT22;4238;48.404;9.498;2023-01-15T16:29:55;2.30;50.50
8402;DHT22;4238;48.404;9.498;2023-01-15T16:32:24;2.30;52.50
8402;DHT22;4238;48.404;9.498;2023-01-15T16:34:59;2.30;37.60
8402;DHT22;4238;48.404;9.498;2023-01-15T16:37:31;2.20;34.60
8402;DHT22;4238;48.404;9.498;2023-01-15T16:40:02;2.20;46.40
8402;DHT22;4238;48.404;9.498;2023-01-15T16:42:33;2.20;51.30
8402;DHT22;4238;48.404;9.498;2023-01-15T16:45:18;2.20;45.70
8402;DHT22;4238;48.404;9.498;2023-01-15T16:48:02;2.10;36.70
8402;DHT22;4238;48.404;9.498;2023-01-15T16:50:35;2.10;44.00
8402;DHT22;4238;48.404;9.498;2023-01-15T16:53:03;2.20;42.20
8402;DHT22;4238;48.404;9.498;2023-01-15T16:55:42;2.20;39.80
8402;DHT22;4238;48.404;9.498;2023-01-15T16:58:15;2.10;39.20